Flight Track Log - Related Links

Times and Time Zones

All times are in EDT time to prevent confusion due to time zone crossing. See the SWA469 flight status page for this flight to view local times or setup timezone preferences in your user account.

Time Position Orientation Groundspeed Altitude Reporting Facility
EDT Latitude Longitude Course Direction KTS MPH feet Rate Location/Type
Tue 09:07:19 AM 41.7203 -87.6986 170° South 245 282 5,900  Level Chicago Center
Tue 09:08:21 AM 41.6564 -87.7394 206° Southwest 252 290 7,900 2,613 Climbing Chicago Center
Tue 09:09:23 AM 41.5650 -87.7906 203° Southwest 297 342 11,300 2,565 Climbing Chicago Center
Tue 09:10:25 AM 41.4822 -87.8381 203° Southwest 318 366 13,200 2,516 Climbing Chicago Center
Tue 09:11:27 AM 41.3853 -87.8803 198° South 360 414 16,500 3,145 Climbing Chicago Center
Tue 09:12:29 AM 41.2789 -87.8908 184° South 377 434 19,700 2,855 Climbing Chicago Center
Tue 09:13:31 AM 41.1692 -87.8908 180° South 390 449 22,400 2,468 Climbing Chicago Center
Tue 09:14:33 AM 41.0544 -87.8869 179° South 408 470 24,800 2,274 Climbing Chicago Center
Tue 09:15:35 AM 40.9375 -87.8833 179° South 419 482 27,100 2,274 Climbing Chicago Center
Tue 09:16:37 AM 40.7917 -87.8789 179° South 435 501 29,500 1,887 Climbing Chicago Center
Tue 09:17:39 AM 40.6675 -87.8731 178° South 444 511 31,000 1,824 Climbing Chicago Center
Tue 09:18:42 AM 40.5436 -87.8708 179° South 448 516 33,300 1,968 Climbing Chicago Center
Tue 09:19:44 AM 40.4208 -87.8672 179° South 442 509 35,100 1,642 Climbing Chicago Center
Tue 09:20:28 AM 40.3150 -87.8631 178° South 442 509 36,200 1,302 Climbing Indianapolis Center
Tue 09:21:30 AM 40.1892 -87.8592 179° South 445 512 37,400 1,355 Climbing Indianapolis Center
Tue 09:22:32 AM 40.0653 -87.8536 178° South 446 513 39,000 774 Climbing Indianapolis Center
Tue 09:23:34 AM 39.9442 -87.8469 178° South 441 507 39,000 -145 Level Indianapolis Center
Tue 09:24:36 AM 39.8269 -87.8114 167° South 436 502 38,700 -629 Descending Indianapolis Center
Tue 09:25:38 AM 39.7136 -87.7664 163° South 430 495 37,700 -823 Descending Indianapolis Center
Tue 09:26:40 AM 39.5958 -87.7286 166° South 430 495 37,000 -339 Descending Indianapolis Center
Tue 09:27:42 AM 39.4511 -87.6867 167° South 440 506 37,000  Level Indianapolis Center
Tue 09:28:44 AM 39.3317 -87.6489 166° South 440 506 37,000  Level Indianapolis Center
Tue 09:29:46 AM 39.2125 -87.6094 166° South 440 506 37,000  Level Indianapolis Center
Tue 09:30:48 AM 39.0928 -87.5733 167° South 439 505 37,000  Level Indianapolis Center
Tue 09:31:49 AM 38.9731 -87.5358 166° South 441 507 37,000  Level Indianapolis Center
Tue 09:32:51 AM 38.8544 -87.4981 166° South 439 505 37,000  Level Indianapolis Center
Tue 09:33:53 AM 38.7353 -87.4617 167° South 439 505 37,000  Level Indianapolis Center
Tue 09:34:55 AM 38.6167 -87.4244 166° South 438 504 37,000  Level Indianapolis Center
Tue 09:35:57 AM 38.4756 -87.3819 167° South 435 501 37,000  Level Indianapolis Center
Tue 09:36:59 AM 38.3578 -87.3444 166° South 437 503 37,000  Level Indianapolis Center
Tue 09:38:01 AM 38.2408 -87.3100 167° South 437 503 37,000  Level Indianapolis Center
Tue 09:39:02 AM 38.1231 -87.2747 167° South 440 506 37,000  Level Indianapolis Center
Tue 09:40:04 AM 38.0039 -87.2386 167° South 442 509 37,000  Level Indianapolis Center
Tue 09:41:06 AM 37.8622 -87.1953 166° South 437 503 37,000  Level Indianapolis Center
Tue 09:42:08 AM 37.7417 -87.1592 167° South 441 507 37,000  Level Indianapolis Center
Tue 09:43:10 AM 37.6225 -87.1239 167° South 440 506 37,000 -484 Level Indianapolis Center
Tue 09:44:12 AM 37.4953 -87.0850 166° South 440 506 36,000 -968 Descending Indianapolis Center
Tue 09:45:14 AM 37.3706 -87.0489 167° South 456 525 35,000 -484 Descending Indianapolis Center
Tue 09:46:16 AM 37.2464 -87.0103 166° South 456 525 35,000  Level Indianapolis Center
Tue 09:47:18 AM 37.1211 -86.9739 167° South 456 525 35,000  Level Indianapolis Center
Tue 09:48:20 AM 36.9950 -86.9361 167° South 462 532 35,000  Level Memphis Center
Tue 09:49:20 AM 36.8692 -86.9000 167° South 462 532 35,000  Level Memphis Center
Tue 09:50:20 AM 36.7450 -86.8639 167° South 462 532 35,000  Level Memphis Center
Tue 09:51:20 AM 36.6064 -86.8208 166° South 462 532 35,000  Level Memphis Center
Tue 09:52:20 AM 36.4822 -86.7825 166° South 457 526 35,000  Level Memphis Center
Tue 09:53:20 AM 36.3542 -86.7469 167° South 457 526 35,000  Level Memphis Center
Tue 09:54:20 AM 36.2236 -86.7089 167° South 476 548 35,000  Level Memphis Center
Tue 09:55:20 AM 36.1100 -86.6728 166° South 470 541 35,000  Level Memphis Center
Tue 09:56:20 AM 35.9914 -86.6114 157° South 470 541 35,000  Level Memphis Center
Tue 09:57:20 AM 35.8728 -86.5528 158° South 470 541 35,000 850 Level Memphis Center
Tue 09:58:20 AM 35.7522 -86.4919 158° South 465 535 36,700 1,185 Climbing Memphis Center
Tue 09:59:57 AM 35.5414 -86.3894 158° South 471 542 38,100 879 Climbing Atlanta Center
Tue 10:00:57 AM 35.4194 -86.3272 157° South 480 552 39,000 450 Climbing Atlanta Center
Tue 10:01:57 AM 35.2956 -86.2678 159° South 480 552 39,000  Level Atlanta Center
Tue 10:02:57 AM 35.1733 -86.2164 161° South 469 540 39,000  Level Atlanta Center
Tue 10:03:57 AM 35.0511 -86.1675 162° South 463 533 39,000  Level Atlanta Center
Tue 10:04:58 AM 34.9267 -86.1161 161° South 463 533 39,000  Level Atlanta Center
Tue 10:05:57 AM 34.8067 -86.0625 160° South 463 533 39,000  Level Atlanta Center
Tue 10:06:57 AM 34.6842 -86.0117 161° South 463 533 39,000  Level Atlanta Center
Tue 10:07:57 AM 34.5639 -85.9608 161° South 463 533 39,000  Level Atlanta Center
Tue 10:08:57 AM 34.4542 -85.9156 161° South 463 533 39,000  Level Atlanta Center
Tue 10:09:57 AM 34.3317 -85.8625 160° South 463 533 39,000  Level Atlanta Center
Tue 10:10:57 AM 34.2094 -85.8147 162° South 463 533 39,000  Level Atlanta Center
Tue 10:11:57 AM 34.0703 -85.7617 162° South 463 533 39,000  Level Atlanta Center
Tue 10:12:57 AM 33.9497 -85.7142 162° South 463 533 39,000  Level Atlanta Center
Tue 10:13:57 AM 33.8253 -85.6617 161° South 469 540 39,000  Level Atlanta Center
Tue 10:14:57 AM 33.7028 -85.6119 161° South 469 540 39,000  Level Atlanta Center
Tue 10:15:57 AM 33.5803 -85.5622 161° South 469 540 39,000  Level Atlanta Center
Tue 10:16:57 AM 33.4556 -85.5128 162° South 469 540 39,000  Level Atlanta Center
Tue 10:17:57 AM 33.3331 -85.4636 161° South 469 540 39,000  Level Atlanta Center
Tue 10:18:58 AM 33.2106 -85.4119 161° South 462 532 39,000  Level Atlanta Center
Tue 10:19:57 AM 33.0878 -85.3628 161° South 462 532 39,000  Level Atlanta Center
Tue 10:20:57 AM 32.9694 -85.3114 160° South 462 532 39,000  Level Atlanta Center
Tue 10:21:57 AM 32.8428 -85.2578 160° South 462 532 39,000  Level Atlanta Center
Tue 10:22:57 AM 32.7219 -85.2117 162° South 462 532 39,000  Level Atlanta Center
Tue 10:23:57 AM 32.5994 -85.1631 162° South 462 532 39,000  Level Atlanta Center
Tue 10:24:57 AM 32.4767 -85.1147 162° South 462 532 39,000  Level Atlanta Center
Tue 10:25:57 AM 32.3497 -85.0667 162° South 468 539 39,000  Level Atlanta Center
Tue 10:26:57 AM 32.2311 -85.0233 163° South 462 532 39,000  Level Atlanta Center
Tue 10:28:14 AM 32.0744 -84.9569 160° South 486 559 39,000  Level Jacksonville Center
Tue 10:29:14 AM 31.9564 -84.9103 161° South 475 547 39,000  Level Jacksonville Center
Tue 10:30:14 AM 31.8483 -84.8736 164° South 463 533 39,000  Level Jacksonville Center
Tue 10:31:14 AM 31.7300 -84.8247 161° South 452 520 39,000  Level Jacksonville Center
Tue 10:32:14 AM 31.6117 -84.7808 162° South 452 520 39,000  Level Jacksonville Center
Tue 10:33:14 AM 31.4914 -84.7344 162° South 452 520 39,000  Level Jacksonville Center
Tue 10:34:14 AM 31.3708 -84.6883 162° South 457 526 39,000  Level Jacksonville Center
Tue 10:35:14 AM 31.2506 -84.6278 157° South 462 532 39,000  Level Jacksonville Center
Tue 10:36:14 AM 31.1325 -84.5647 155° Southeast 469 540 39,000  Level Jacksonville Center
Tue 10:37:14 AM 31.0164 -84.5044 156° South 469 540 39,000  Level Jacksonville Center
Tue 10:38:14 AM 30.9000 -84.4444 156° South 464 534 39,000  Level Jacksonville Center
Tue 10:39:14 AM 30.7819 -84.3844 156° South 464 534 39,000  Level Jacksonville Center
Tue 10:40:14 AM 30.6656 -84.3247 156° South 459 528 39,000  Level Jacksonville Center
Tue 10:41:14 AM 30.5411 -84.2603 156° South 454 522 39,000  Level Jacksonville Center
Tue 10:42:14 AM 30.4247 -84.2006 156° South 454 522 39,000  Level Jacksonville Center
Tue 10:43:14 AM 30.3147 -84.1439 156° South 448 516 39,000  Level Jacksonville Center
Tue 10:44:14 AM 30.2025 -84.0869 156° South 448 516 39,000  Level Jacksonville Center
Tue 10:45:14 AM 30.0903 -84.0306 157° South 448 516 39,000  Level Jacksonville Center
Tue 10:46:14 AM 29.9758 -83.9764 158° South 448 516 39,000  Level Jacksonville Center
Tue 10:47:14 AM 29.8719 -83.9250 157° South 448 516 39,000  Level Jacksonville Center
Tue 10:48:14 AM 29.7639 -83.8592 152° Southeast 448 516 39,000 -300 Level Jacksonville Center
Tue 10:49:14 AM 29.6558 -83.7889 151° Southeast 448 516 38,400 -800 Descending Jacksonville Center
Tue 10:50:14 AM 29.5456 -83.7208 152° Southeast 448 516 37,400 -950 Descending Jacksonville Center
Tue 10:51:14 AM 29.4375 -83.6508 151° Southeast 448 516 36,500 -950 Descending Jacksonville Center
Tue 10:52:14 AM 29.3294 -83.5811 151° Southeast 448 516 35,500 -750 Descending Jacksonville Center
Tue 10:53:14 AM 29.2192 -83.5111 151° Southeast 453 521 35,000 -250 Descending Jacksonville Center
Tue 10:54:14 AM 29.1108 -83.4439 152° Southeast 453 521 35,000  Level Jacksonville Center
Tue 10:55:14 AM 29.0025 -83.3722 150° Southeast 453 521 35,000 -450 Level Jacksonville Center
Tue 10:56:14 AM 28.8922 -83.3147 155° Southeast 447 514 34,100 -750 Descending Jacksonville Center
Tue 10:57:14 AM 28.7733 -83.2739 163° South 437 503 33,500 -580 Descending Jacksonville Center
Tue 10:59:10 AM 28.5486 -83.1958 163° South 419 482 32,400 -545 Descending Miami Center
Tue 11:00:10 AM 28.4317 -83.1514 162° South 429 494 31,900 -700 Descending Miami Center
Tue 11:01:10 AM 28.3189 -83.1097 162° South 434 499 31,000 -1,300 Descending Miami Center
Tue 11:02:10 AM 28.2081 -83.0681 162° South 429 494 29,300 -1,850 Descending Miami Center
Tue 11:03:10 AM 28.1014 -83.0294 162° South 418 481 27,300 -1,150 Descending Miami Center
Tue 11:04:10 AM 27.9994 -82.9744 155° Southeast 411 473 27,000 -150 Descending Miami Center
Tue 11:05:10 AM 27.8994 -82.9175 153° Southeast 406 467 27,000  Level Miami Center
Tue 11:06:10 AM 27.7897 -82.8506 152° Southeast 413 475 27,000  Level Miami Center
Tue 11:07:10 AM 27.6900 -82.7914 152° Southeast 408 470 27,000  Level Miami Center
Tue 11:08:10 AM 27.5942 -82.7350 152° Southeast 398 458 27,000 -200 Level Miami Center
Tue 11:09:10 AM 27.5064 -82.6861 154° Southeast 390 449 26,600 -1,400 Descending Miami Center
Tue 11:10:10 AM 27.4083 -82.6367 156° South 383 441 24,200 -2,450 Descending Miami Center
Tue 11:11:10 AM 27.3106 -82.5756 151° Southeast 377 434 21,700 -2,200 Descending Miami Center
Tue 11:12:10 AM 27.2269 -82.5272 153° Southeast 382 440 19,800 -1,950 Descending Miami Center
Tue 11:13:10 AM 27.1328 -82.4783 155° Southeast 382 440 17,800 -1,950 Descending Miami Center
Tue 11:14:10 AM 27.0408 -82.4272 154° Southeast 377 434 15,900 -2,000 Descending Miami Center
Tue 11:15:10 AM 26.9531 -82.3764 153° Southeast 372 428 13,800 -1,950 Descending Miami Center
Tue 11:16:10 AM 26.8633 -82.3256 153° Southeast 367 422 12,000 -1,450 Descending Miami Center
Tue 11:17:10 AM 26.7817 -82.2753 151° Southeast 350 403 10,900 -750 Descending Miami Center
Tue 11:18:10 AM 26.7064 -82.2183 146° Southeast 339 390 10,500 -750 Descending Miami Center
Tue 11:19:10 AM 26.6356 -82.1594 143° Southeast 327 376 9,400 -1,100 Descending Miami Center
Tue 11:20:10 AM 26.5667 -82.1053 145° Southeast 315 362 8,300 -1,050 Descending Miami Center
Tue 11:21:10 AM 26.4997 -82.0511 144° Southeast 299 344 7,300 -1,050 Descending Miami Center
Tue 11:22:10 AM 26.4369 -81.9975 143° Southeast 294 338 6,200 -1,100 Descending Miami Center
Tue 11:24:00 AM 26.5035 -81.7898 50° Northeast  Level FlightAware Approximate
Tue 11:31:00 AM 26.5333 -81.7500 50° Northeast  Level FlightAware Approximate
Tue 11:32:00 AM 26.5362 -81.7552 50° Northeast  Level Estimated
Tue 11:33:00 AM 26.5333 -81.7500 50° Northeast  Level FlightAware Approximate
Tue 11:34:00 AM 26.5362 -81.7552 50° Northeast  Level Estimated
Tue 11:35:00 AM 26.5333 -81.7500 50° Northeast  Level FlightAware Approximate
Tue 11:36:00 AM 26.5362 -81.7552 50° Northeast  Level Estimated
Tue 11:37:00 AM 26.5333 -81.7500 50° Northeast  Level FlightAware Approximate
Tue 11:38:00 AM 26.5362 -81.7552 50° Northeast  Level Estimated
Tue 11:39:00 AM 26.5333 -81.7500 50° Northeast  Level FlightAware Approximate

Login

Don't have an account? Register now (free) for customized features, flight alerts, and more!